• Join FlightAware (Why Join?)
  • Login
  • US Flag GB Flag 
08:35 EST


 

Airport Tracker/Info


-or-


 

Live Flight TrackerFlight Track Log ✈ GGN7321 ✈ 19-Apr-2013 ✈ CYHZ - CYQM

Flight Track Log - Related Links

Times and Time Zones

All times are in EDT time to prevent confusion due to time zone crossing. See the GGN7321 flight status page for this flight to view local times or setup timezone preferences in your user account.

Time Position Orientation Groundspeed Altitude Reporting Facility
EDT Latitude Longitude Course Direction KTS MPH feet Rate Location/Type
21:21 44.8500 -63.5000 245° Southwest 110 127 900  Level Moncton Center
21:22 44.8333 -63.5500 245° Southwest 130 150 2,500 1,500 Climbing Moncton Center
21:23 44.8833 -63.5667 347° North 200 230 3,900 1,320 Climbing Moncton Center
21:24 44.9167 -63.6167 313° West 200 230 5,200 1,380 Climbing Moncton Center
21:25 44.9833 -63.6667 332° Northwest 210 242 6,700 1,260 Climbing Moncton Center
21:26 45.0333 -63.6833 347° North 220 253 7,800 1,200 Climbing Moncton Center
21:27 45.0833 -63.7333 325° Northwest 210 242 9,200 1,140 Climbing Moncton Center
21:28 45.1333 -63.7833 325° Northwest 220 253 10,100 960 Climbing Moncton Center
21:29 45.2000 -63.8333 332° Northwest 230 265 11,200 900 Climbing Moncton Center
21:30 45.2500 -63.8500 347° North 230 265 12,000 420 Climbing Moncton Center
21:31 45.3000 -63.9000 325° Northwest 240 276 12,100  Climbing Moncton Center
21:32 45.3667 -63.9667 325° Northwest 250 288 12,100  Level Moncton Center
21:33 45.4333 -64.0000 341° North 250 288 12,100  Level Moncton Center
21:34 45.5000 -64.0333 341° North 250 288 12,100 -60 Level Moncton Center
21:35 45.5667 -64.0833 332° Northwest 260 299 12,000  Descending Moncton Center
21:36 45.6167 -64.1333 325° Northwest 250 288 12,100  Climbing Moncton Center
21:37 45.7000 -64.1833 337° Northwest 250 288 12,100 -60 Level Moncton Center
21:38 45.7667 -64.2333 332° Northwest 260 299 12,000 -120 Descending Moncton Center
21:39 45.8333 -64.2500 350° North 260 299 11,900 -1,020 Descending Moncton Center
21:40 45.9167 -64.3000 337° Northwest 280 322 10,000 -1,500 Descending Moncton Center
21:41 45.9833 -64.3167 350° North 290 334 8,900 -1,500 Descending Moncton Center
21:42 46.0667 -64.3500 344° North 270 311 7,100 -1,860 Descending Moncton Center
21:43 46.1333 -64.3667 350° North 260 299 5,200 -2,040 Descending Moncton Center
21:44 46.2000 -64.4167 333° Northwest 250 288 3,100 -1,380 Descending Moncton Center
21:45 46.2500 -64.4500 335° Northwest 210 242 2,500 -480 Descending Moncton Center
21:46 46.2167 -64.5000 226° Southwest 140 161 2,200 -540 Descending Moncton Center
21:47 46.2000 -64.5500 244° Southwest 130 150 1,500 -360 Descending Moncton Center
21:48 46.1833 -64.5667 215° Southwest 130 150 1,500 -180 Level Moncton Center
21:49 46.1500 -64.6167 226° Southwest 130 150 1,200 -360 Descending Moncton Center
21:50 46.1333 -64.6333 215° Southwest 110 127 800 -480 Descending Moncton Center
21:51 46.1167 -64.6667 234° Southwest 110 127 300 -300 Descending Moncton Center
21:52 46.1000 -64.6833 215° Southwest 40 46 300  Level Moncton Center